Time;durP1;ratioP1;P1;durP2;ratioP2;P2;SDS_P1;SDS_P2;PMS_P1;PMS_P2;Temp;Humidity;BMP_temperature;BMP_pressure;BME280_temperature;BME280_humidity;BME280_pressure;Samples;Min_cycle;Max_cycle;Signal;HPM_P1;HPM_P2
2023/08/22 00:00:57;;;;;;;12.33;4.67;;;;;;;19.22;74.65;100638.91;4210969;28;20232;-67
2023/08/22 00:03:24;;;;;;;10.80;4.37;;;;;;;19.11;74.80;100640.28;4220877;28;20231;-69
2023/08/22 00:05:51;;;;;;;9.43;4.37;;;;;;;19.08;74.63;100629.72;4213420;28;21432;-65
2023/08/22 00:08:17;;;;;;;14.83;5.53;;;;;;;18.86;75.55;100631.63;4217693;28;20643;-66
2023/08/22 00:10:45;;;;;;;11.67;4.60;;;;;;;19.04;74.75;100630.31;4211983;28;21584;-69
2023/08/22 00:13:11;;;;;;;11.37;4.37;;;;;;;19.00;74.69;100643.59;4215000;28;20228;-66
2023/08/22 00:15:38;;;;;;;8.37;4.30;;;;;;;18.92;74.61;100636.34;4222130;28;21763;-65
2023/08/22 00:18:06;;;;;;;12.63;4.83;;;;;;;18.84;75.00;100641.97;4212271;28;20228;-65
2023/08/22 00:20:33;;;;;;;14.30;4.63;;;;;;;18.78;74.92;100635.34;4220047;28;20723;-65
2023/08/22 00:23:00;;;;;;;9.33;4.80;;;;;;;18.87;74.71;100640.72;4213566;28;21880;-67
2023/08/22 00:25:27;;;;;;;9.20;4.47;;;;;;;18.80;74.77;100637.91;4210569;28;20221;-66
2023/08/22 00:27:54;;;;;;;14.63;4.63;;;;;;;18.65;75.27;100641.56;4224016;28;20674;-68
2023/08/22 00:30:20;;;;;;;12.57;4.40;;;;;;;18.63;75.61;100640.06;4206824;28;20593;-67
2023/08/22 00:32:47;;;;;;;11.53;4.23;;;;;;;18.60;75.37;100644.03;4197436;28;20946;-66
2023/08/22 00:35:14;;;;;;;13.67;5.00;;;;;;;18.58;75.40;100629.69;4212263;28;20228;-67
2023/08/22 00:37:40;;;;;;;11.00;4.50;;;;;;;18.47;76.16;100635.66;4213108;28;22195;-66
2023/08/22 00:40:08;;;;;;;11.87;4.53;;;;;;;18.59;75.51;100630.50;4211030;28;20317;-66
2023/08/22 00:42:35;;;;;;;18.30;5.10;;;;;;;18.66;75.05;100632.28;4211377;28;20300;-67
2023/08/22 00:45:03;;;;;;;8.90;3.97;;;;;;;18.55;74.73;100623.72;4215303;28;20251;-65
2023/08/22 00:47:30;;;;;;;14.27;4.83;;;;;;;18.49;75.37;100622.63;4218671;28;20300;-68
2023/08/22 00:49:56;;;;;;;11.23;4.70;;;;;;;18.44;75.24;100628.69;4206694;28;20247;-66
2023/08/22 00:52:23;;;;;;;12.50;4.30;;;;;;;18.47;74.65;100627.44;4219508;28;26232;-67
2023/08/22 00:54:50;;;;;;;12.30;4.60;;;;;;;18.45;74.89;100626.81;4209437;28;20668;-68
2023/08/22 00:57:17;;;;;;;12.57;4.90;;;;;;;18.48;74.49;100630.00;4213777;28;20524;-64
2023/08/22 00:59:43;;;;;;;11.33;4.13;;;;;;;18.58;74.07;100626.94;4210247;28;20353;-66
2023/08/22 01:02:10;;;;;;;7.30;4.03;;;;;;;18.59;73.55;100619.53;4201047;28;21708;-66
2023/08/22 01:04:37;;;;;;;8.77;3.70;;;;;;;18.63;72.98;100618.97;4224064;28;21155;-66
2023/08/22 01:07:25;;;;;;;14.67;4.60;;;;;;;18.49;73.64;100622.63;4214402;28;20239;-68
2023/08/22 01:10:02;;;;;;;11.53;3.90;;;;;;;18.51;73.60;100623.28;4208307;28;21202;-66
2023/08/22 01:12:32;;;;;;;9.67;3.93;;;;;;;18.51;73.56;100613.16;4207565;28;20251;-66
2023/08/22 01:15:10;;;;;;;14.17;4.20;;;;;;;18.59;73.46;100614.94;4205147;28;20239;-67
2023/08/22 01:17:38;;;;;;;11.43;3.40;;;;;;;18.60;73.14;100608.41;4208894;28;20458;-66
2023/08/22 01:20:11;;;;;;;9.50;4.10;;;;;;;18.66;73.31;100604.00;4206501;28;21292;-65
2023/08/22 01:22:41;;;;;;;9.20;3.60;;;;;;;18.75;72.37;100607.47;4212236;28;22836;-67
2023/08/22 01:25:08;;;;;;;9.00;3.47;;;;;;;18.77;72.32;100614.47;4217273;28;20232;-66
2023/08/22 01:27:48;;;;;;;8.67;3.40;;;;;;;18.77;72.05;100617.19;4198882;28;22181;-66
2023/08/22 01:30:22;;;;;;;7.70;3.20;;;;;;;18.79;71.82;100615.13;4200381;28;20482;-65
2023/08/22 01:32:50;;;;;;;8.77;3.50;;;;;;;18.81;71.74;100615.75;4195229;28;21405;-67
2023/08/22 01:35:21;;;;;;;7.50;3.13;;;;;;;18.75;71.99;100613.78;4197238;28;20236;-67
2023/08/22 01:37:49;;;;;;;10.67;2.73;;;;;;;18.75;71.76;100615.69;4212385;28;20794;-67
2023/08/22 01:40:16;;;;;;;7.87;2.90;;;;;;;18.75;71.38;100613.78;4187700;28;20243;-66
2023/08/22 01:42:42;;;;;;;6.03;2.70;;;;;;;18.81;71.26;100617.66;4208352;28;20232;-66
2023/08/22 01:45:09;;;;;;;7.53;3.60;;;;;;;18.81;71.32;100617.66;4208526;28;20246;-66
2023/08/22 01:47:36;;;;;;;6.47;3.00;;;;;;;18.71;72.18;100617.13;4210395;28;20626;-65
2023/08/22 01:50:03;;;;;;;6.43;3.23;;;;;;;18.69;72.38;100617.34;4201334;28;20315;-66
2023/08/22 01:52:29;;;;;;;6.80;3.10;;;;;;;18.66;72.99;100618.56;4208594;28;20552;-68
2023/08/22 01:54:56;;;;;;;9.17;3.70;;;;;;;18.50;74.24;100619.69;4220203;28;21162;-66
2023/08/22 01:57:23;;;;;;;11.43;3.73;;;;;;;18.33;74.47;100634.69;4214866;28;20238;-65
2023/08/22 01:59:49;;;;;;;7.57;3.00;;;;;;;18.39;74.40;100613.88;4191020;28;20228;-67
2023/08/22 02:02:16;;;;;;;5.80;3.47;;;;;;;18.32;74.71;100622.84;4214409;28;20242;-66
2023/08/22 02:04:42;;;;;;;5.27;3.27;;;;;;;18.30;74.86;100621.34;4219562;28;20237;-68
2023/08/22 02:07:09;;;;;;;12.30;3.73;;;;;;;18.18;75.13;100629.22;4201194;28;21066;-67
2023/08/22 02:09:35;;;;;;;8.30;3.30;;;;;;;18.06;75.75;100631.63;4206069;28;20228;-66
2023/08/22 02:12:03;;;;;;;8.47;3.53;;;;;;;18.04;76.06;100639.22;4206209;28;20227;-66
2023/08/22 02:14:29;;;;;;;11.70;3.80;;;;;;;18.07;76.28;100633.31;4216644;28;20244;-70
2023/08/22 02:16:56;;;;;;;13.73;4.40;;;;;;;18.23;75.90;100656.06;4215849;28;20341;-67
2023/08/22 02:19:22;;;;;;;6.20;3.70;;;;;;;18.09;76.25;100649.59;4210491;28;20236;-65
2023/08/22 02:21:49;;;;;;;6.83;3.60;;;;;;;17.78;77.40;100647.91;4193738;28;20580;-66
2023/08/22 02:24:15;;;;;;;9.53;3.80;;;;;;;17.47;78.42;100638.81;4210829;28;20266;-69
2023/08/22 02:26:43;;;;;;;12.47;4.17;;;;;;;17.24;79.97;100647.09;4229415;28;20275;-65
2023/08/22 02:29:09;;;;;;;8.80;4.33;;;;;;;17.29;79.92;100649.28;4194521;28;22134;-65
2023/08/22 02:31:36;;;;;;;11.97;5.10;;;;;;;16.97;81.69;100641.19;4213781;28;20372;-66
2023/08/22 02:34:03;;;;;;;10.10;4.57;;;;;;;16.88;82.25;100640.38;4216642;28;25018;-66
2023/08/22 02:36:29;;;;;;;10.30;4.73;;;;;;;16.88;82.33;100636.81;4208828;28;21979;-67
2023/08/22 02:38:56;;;;;;;10.13;4.57;;;;;;;16.87;82.39;100637.84;4207876;28;20293;-66
2023/08/22 02:41:23;;;;;;;11.17;5.57;;;;;;;16.79;83.07;100633.28;4208376;28;20354;-66
2023/08/22 02:43:49;;;;;;;11.53;4.60;;;;;;;16.75;83.24;100637.44;4209533;28;25316;-65
2023/08/22 02:46:16;;;;;;;11.17;4.27;;;;;;;16.83;82.66;100639.22;4193379;28;20243;-67
2023/08/22 02:48:42;;;;;;;8.80;4.37;;;;;;;16.80;82.69;100643.19;4188658;28;20244;-66
2023/08/22 02:51:09;;;;;;;14.53;4.80;;;;;;;16.80;82.71;100648.66;4195307;28;21738;-66
2023/08/22 02:53:36;;;;;;;11.20;4.93;;;;;;;16.81;82.82;100655.84;4215538;28;20601;-67
2023/08/22 02:56:04;;;;;;;13.77;6.07;;;;;;;16.68;84.09;100655.59;4206052;28;20798;-66
2023/08/22 02:58:31;;;;;;;10.07;5.10;;;;;;;16.55;84.73;100648.00;4203558;28;20230;-67
2023/08/22 03:00:57;;;;;;;12.57;5.93;;;;;;;16.51;85.29;100650.25;4211769;28;20238;-66
2023/08/22 03:03:24;;;;;;;11.37;5.40;;;;;;;16.41;85.82;100645.03;4214024;28;21884;-66
2023/08/22 03:05:51;;;;;;;9.47;5.30;;;;;;;16.37;86.31;100651.03;4218509;28;20236;-65
2023/08/22 03:08:17;;;;;;;13.40;5.67;;;;;;;16.27;86.69;100641.16;4206541;28;20233;-66
2023/08/22 03:10:44;;;;;;;16.00;5.60;;;;;;;16.18;86.71;100633.22;4208814;28;22073;-67
2023/08/22 03:13:10;;;;;;;10.83;5.77;;;;;;;16.17;86.82;100635.06;4213512;28;20232;-67
2023/08/22 03:15:37;;;;;;;12.13;5.23;;;;;;;16.16;86.85;100634.22;4203849;28;20491;-66
2023/08/22 03:18:04;;;;;;;11.33;5.40;;;;;;;16.21;86.72;100644.63;4208856;28;20253;-65
2023/08/22 03:20:31;;;;;;;11.67;5.23;;;;;;;16.23;86.63;100645.31;4214036;28;20228;-67
2023/08/22 03:22:57;;;;;;;14.00;6.17;;;;;;;16.11;87.28;100631.19;4212703;28;20239;-67
2023/08/22 03:25:24;;;;;;;13.30;5.33;;;;;;;16.04;87.52;100635.69;4205310;28;21214;-66
2023/08/22 03:27:51;;;;;;;9.43;5.27;;;;;;;16.10;87.55;100628.63;4218881;28;20261;-66
2023/08/22 03:30:17;;;;;;;15.57;6.03;;;;;;;15.94;88.22;100635.03;4208592;28;20238;-66
2023/08/22 03:32:44;;;;;;;13.80;5.40;;;;;;;16.05;87.77;100634.63;4203717;28;21669;-66
2023/08/22 03:35:10;;;;;;;13.30;5.90;;;;;;;16.08;87.45;100634.28;4204954;28;23938;-68
2023/08/22 03:37:37;;;;;;;19.57;5.90;;;;;;;15.89;88.47;100642.91;4215253;28;20259;-67
2023/08/22 03:40:05;;;;;;;15.03;5.63;;;;;;;16.00;88.37;100634.31;4198637;28;21183;-67
2023/08/22 03:42:31;;;;;;;10.60;4.90;;;;;;;16.03;88.27;100633.09;4205968;28;20328;-65
2023/08/22 03:44:58;;;;;;;10.43;4.93;;;;;;;16.26;87.01;100639.47;4228295;28;24380;-65
2023/08/22 03:47:25;;;;;;;10.93;5.23;;;;;;;16.31;86.58;100644.38;4230101;28;20308;-66
2023/08/22 03:49:51;;;;;;;10.03;5.23;;;;;;;16.31;86.51;100649.84;4205819;28;21342;-66
2023/08/22 03:52:18;;;;;;;13.77;5.67;;;;;;;16.22;86.95;100638.13;4217109;28;21638;-67
2023/08/22 03:54:45;;;;;;;19.43;5.83;;;;;;;16.24;87.04;100643.41;4271928;28;21737;-67
2023/08/22 03:57:12;;;;;;;11.50;5.73;;;;;;;16.39;86.01;100640.78;4223232;28;20273;-67
2023/08/22 03:59:38;;;;;;;10.33;5.27;;;;;;;16.23;86.83;100637.09;4231223;28;20315;-67
2023/08/22 04:02:05;;;;;;;6.80;5.20;;;;;;;16.53;85.66;100634.53;4234424;28;20240;-66
2023/08/22 04:04:32;;;;;;;9.87;5.47;;;;;;;16.30;86.49;100646.28;4234738;28;23563;-67
2023/08/22 04:06:58;;;;;;;15.63;4.70;;;;;;;16.30;86.79;100639.94;4210925;28;20318;-65
2023/08/22 04:09:25;;;;;;;10.87;4.97;;;;;;;16.26;87.16;100641.34;4233347;28;21725;-69
2023/08/22 04:11:53;;;;;;;11.20;4.60;;;;;;;16.31;87.08;100637.03;4226846;28;22284;-67
2023/08/22 04:14:20;;;;;;;12.23;5.87;;;;;;;16.35;86.74;100625.75;4198482;28;20323;-66
2023/08/22 04:16:46;;;;;;;10.93;5.57;;;;;;;16.27;86.64;100626.69;4216388;28;21907;-65
2023/08/22 04:19:13;;;;;;;11.80;5.13;;;;;;;16.19;86.94;100630.28;4225747;28;20769;-64
2023/08/22 04:21:40;;;;;;;11.97;5.47;;;;;;;16.27;86.91;100637.59;4217524;28;20315;-67
2023/08/22 04:24:06;;;;;;;11.50;5.87;;;;;;;16.40;86.02;100634.25;4216244;28;20236;-65
2023/08/22 04:26:33;;;;;;;10.53;5.43;;;;;;;16.50;85.75;100632.13;4206057;28;20644;-64
2023/08/22 04:29:01;;;;;;;12.70;5.40;;;;;;;16.47;86.28;100629.75;4221272;28;20308;-66
2023/08/22 04:31:28;;;;;;;10.40;5.10;;;;;;;16.33;87.06;100636.88;4222667;28;22406;-67
2023/08/22 04:33:54;;;;;;;11.63;5.70;;;;;;;16.40;86.65;100631.50;4212276;28;20248;-66
2023/08/22 04:36:21;;;;;;;18.53;6.10;;;;;;;16.46;86.55;100630.81;4203770;28;20234;-67
2023/08/22 04:38:49;;;;;;;14.10;6.20;;;;;;;16.53;85.83;100631.78;4218220;28;20261;-67
2023/08/22 04:41:16;;;;;;;12.33;4.73;;;;;;;16.69;84.97;100636.28;4231334;28;20240;-65
2023/08/22 04:43:43;;;;;;;12.37;6.10;;;;;;;16.83;84.70;100634.63;4215714;28;20314;-65
2023/08/22 04:46:09;;;;;;;15.80;5.30;;;;;;;16.92;83.58;100632.66;4200997;28;20243;-64
2023/08/22 04:48:36;;;;;;;17.13;6.23;;;;;;;17.14;82.85;100646.50;4208233;28;21561;-66
2023/08/22 04:51:03;;;;;;;14.33;5.67;;;;;;;17.29;82.77;100643.81;4234691;28;20260;-66
2023/08/22 04:53:30;;;;;;;10.87;5.80;;;;;;;17.35;82.00;100648.53;4215784;28;20241;-69
2023/08/22 04:55:56;;;;;;;16.13;5.83;;;;;;;17.40;81.71;100649.69;4215986;28;23256;-65
2023/08/22 04:58:23;;;;;;;15.37;5.07;;;;;;;17.64;80.78;100655.06;4212786;28;20236;-67
2023/08/22 05:00:50;;;;;;;8.83;4.47;;;;;;;17.83;79.71;100654.47;4217128;28;20341;-67
2023/08/22 05:03:19;;;;;;;13.13;4.83;;;;;;;17.90;79.33;100649.94;4212582;28;20649;-68
2023/08/22 05:05:45;;;;;;;17.17;5.00;;;;;;;17.70;79.96;100662.50;4205981;28;20228;-66
2023/08/22 05:08:12;;;;;;;16.87;5.00;;;;;;;17.72;80.18;100660.44;4225385;28;20823;-65
2023/08/22 05:10:38;;;;;;;13.93;4.70;;;;;;;17.74;80.38;100658.38;4209228;28;20609;-68
2023/08/22 05:13:05;;;;;;;11.93;5.17;;;;;;;17.77;80.60;100659.88;4217949;28;20228;-65
2023/08/22 05:15:31;;;;;;;9.27;4.40;;;;;;;17.82;80.85;100650.06;4219069;28;22769;-66
2023/08/22 05:17:58;;;;;;;10.83;5.03;;;;;;;17.87;79.94;100654.94;4215175;28;21114;-68
2023/08/22 05:20:25;;;;;;;10.93;4.80;;;;;;;17.94;79.44;100653.13;4207489;28;20248;-68
2023/08/22 05:22:52;;;;;;;14.10;5.10;;;;;;;18.25;78.75;100665.78;4211076;28;20224;-66
2023/08/22 05:25:19;;;;;;;14.67;5.03;;;;;;;18.28;77.89;100661.84;4207412;28;20296;-68
2023/08/22 05:27:45;;;;;;;14.77;5.03;;;;;;;18.17;78.28;100664.03;4227839;28;20232;-68
2023/08/22 05:30:12;;;;;;;10.47;4.33;;;;;;;18.09;78.58;100663.28;4226184;28;20351;-72
2023/08/22 05:32:39;;;;;;;11.33;4.37;;;;;;;18.39;77.81;100665.97;4226006;28;23370;-72
2023/08/22 05:35:07;;;;;;;13.57;4.87;;;;;;;18.70;76.78;100657.44;4213441;28;21681;-74
2023/08/22 05:37:33;;;;;;;10.83;4.50;;;;;;;18.87;75.74;100659.91;4208361;28;20304;-71
2023/08/22 05:40:02;;;;;;;12.53;5.10;;;;;;;18.61;76.31;100655.84;4225564;28;20244;-73
2023/08/22 05:42:29;;;;;;;7.37;4.17;;;;;;;18.96;75.49;100658.72;4231459;28;20294;-71
2023/08/22 05:44:55;;;;;;;10.37;4.27;;;;;;;19.29;73.51;100663.66;4206155;28;20596;-72
2023/08/22 05:47:22;;;;;;;18.00;5.77;;;;;;;19.20;73.07;100667.59;4212804;28;20248;-74
2023/08/22 05:49:49;;;;;;;11.17;4.40;;;;;;;19.41;72.53;100664.78;4214159;28;20244;-73
2023/08/22 05:52:15;;;;;;;8.83;4.10;;;;;;;19.63;72.08;100665.59;4224693;28;21124;-72
2023/08/22 05:54:43;;;;;;;14.20;5.40;;;;;;;19.39;72.86;100661.41;4212430;28;20236;-70
2023/08/22 05:57:09;;;;;;;13.40;4.97;;;;;;;19.35;72.82;100675.75;4216738;28;20240;-73
2023/08/22 05:59:37;;;;;;;23.27;5.50;;;;;;;19.50;72.01;100675.63;4196932;28;20296;-71
2023/08/22 06:02:03;;;;;;;13.93;4.57;;;;;;;19.64;71.22;100671.91;4217759;28;21669;-73
2023/08/22 06:04:30;;;;;;;10.47;4.73;;;;;;;19.72;70.36;100674.50;4174375;28;21455;-71
2023/08/22 06:06:57;;;;;;;17.10;4.03;;;;;;;19.89;69.62;100668.72;4216039;28;20482;-74
2023/08/22 06:09:23;;;;;;;18.23;4.63;;;;;;;20.05;68.88;100664.78;4224373;28;20655;-70
2023/08/22 06:11:50;;;;;;;14.50;4.37;;;;;;;20.16;68.73;100661.44;4195792;28;21513;-72
2023/08/22 06:14:16;;;;;;;15.60;4.20;;;;;;;20.06;68.33;100660.97;4215685;28;20310;-69
2023/08/22 06:16:43;;;;;;;18.53;4.50;;;;;;;20.24;67.81;100660.44;4196167;28;20237;-72
2023/08/22 06:19:09;;;;;;;18.97;4.30;;;;;;;20.36;67.84;100660.66;4201956;28;20295;-72
2023/08/22 06:21:36;;;;;;;16.17;4.63;;;;;;;20.77;66.34;100662.47;4212086;28;20548;-69
2023/08/22 06:24:04;;;;;;;14.30;3.77;;;;;;;21.10;65.07;100653.41;4207319;28;20372;-68
2023/08/22 06:26:31;;;;;;;15.43;4.33;;;;;;;21.24;64.57;100653.41;4200336;28;20350;-72
2023/08/22 06:28:58;;;;;;;15.27;3.43;;;;;;;21.50;62.04;100647.00;4221594;28;20306;-70
2023/08/22 06:31:24;;;;;;;12.23;3.20;;;;;;;21.43;62.81;100643.41;4220296;28;20231;-70
2023/08/22 06:33:51;;;;;;;10.93;3.10;;;;;;;21.55;62.24;100657.38;4222466;28;20254;-72
2023/08/22 06:36:18;;;;;;;13.13;3.33;;;;;;;21.67;62.29;100663.94;4209486;28;20362;-72
2023/08/22 06:38:45;;;;;;;16.93;3.33;;;;;;;21.74;60.78;100666.69;4225355;28;20315;-72
2023/08/22 06:41:12;;;;;;;9.27;2.60;;;;;;;23.15;57.82;100658.50;4214120;28;20236;-73
2023/08/22 06:43:38;;;;;;;14.50;2.90;;;;;;;25.49;51.82;100664.03;4222924;28;20283;-72
2023/08/22 06:46:05;;;;;;;9.27;1.90;;;;;;;27.02;45.88;100670.19;4211262;28;22347;-70
2023/08/22 06:48:31;;;;;;;12.97;1.97;;;;;;;26.08;47.91;100667.56;4224980;28;22318;-71
2023/08/22 06:51:07;;;;;;;11.27;2.37;;;;;;;28.01;43.44;100669.75;4204866;28;20231;-65
2023/08/22 06:53:35;;;;;;;11.20;2.00;;;;;;;29.05;41.48;100672.56;4229098;28;23562;-70
2023/08/22 06:56:02;;;;;;;8.77;1.93;;;;;;;30.19;38.70;100674.16;4218123;28;20236;-74
2023/08/22 06:58:29;;;;;;;6.23;1.87;;;;;;;31.38;37.28;100675.19;4218683;28;20237;-73
2023/08/22 07:00:57;;;;;;;5.68;1.80;;;;;;;32.84;34.62;100670.75;4209014;28;21663;-73
2023/08/22 07:03:23;;;;;;;11.60;2.10;;;;;;;32.40;35.06;100673.22;4211367;28;20237;-74
2023/08/22 07:05:54;;;;;;;9.80;1.98;;;;;;;28.97;40.19;100670.28;4218711;28;20263;-71
2023/08/22 07:08:21;;;;;;;13.63;2.65;;;;;;;29.95;38.07;100665.41;4208029;28;20237;-74
2023/08/22 07:10:47;;;;;;;6.07;1.90;;;;;;;31.41;36.20;100671.00;4216432;28;20632;-74
2023/08/22 07:13:15;;;;;;;9.57;2.60;;;;;;;32.08;34.15;100662.44;4216411;28;20417;-72
2023/08/22 07:15:43;;;;;;;8.60;2.10;;;;;;;30.01;37.80;100661.53;4188763;28;20286;-72
2023/08/22 07:18:11;;;;;;;10.65;2.20;;;;;;;30.10;37.83;100662.69;4227470;28;20885;-72
2023/08/22 07:20:38;;;;;;;8.48;2.17;;;;;;;30.44;37.71;100658.59;4227751;28;20237;-75
2023/08/22 07:23:05;;;;;;;5.90;2.17;;;;;;;30.06;38.44;100661.56;4206870;28;20240;-74
2023/08/22 07:25:31;;;;;;;6.53;1.80;;;;;;;32.91;33.54;100657.22;4200649;28;20441;-75
2023/08/22 07:27:58;;;;;;;7.63;1.77;;;;;;;30.56;37.57;100666.75;4218226;28;20251;-73
2023/08/22 07:30:25;;;;;;;6.90;1.83;;;;;;;31.54;35.59;100661.19;4222023;28;20224;-70
2023/08/22 07:32:51;;;;;;;6.85;1.60;;;;;;;32.54;33.14;100655.78;4196199;28;21935;-75
2023/08/22 07:35:18;;;;;;;13.60;1.73;;;;;;;33.81;31.35;100648.50;4225271;28;20248;-75
2023/08/22 07:37:45;;;;;;;6.00;1.70;;;;;;;34.84;30.27;100669.56;4225143;28;20586;-74
2023/08/22 07:40:11;;;;;;;11.07;1.90;;;;;;;34.23;30.58;100655.28;4225256;28;20247;-72
2023/08/22 07:42:38;;;;;;;8.40;1.95;;;;;;;33.11;32.23;100650.59;4193181;28;20386;-72
2023/08/22 07:45:06;;;;;;;7.45;1.77;;;;;;;33.28;32.58;100654.91;4230315;28;21790;-73
2023/08/22 07:47:33;;;;;;;7.47;2.28;;;;;;;34.39;30.25;100650.31;4211738;28;20337;-73
2023/08/22 07:50:01;;;;;;;10.32;3.63;;;;;;;34.98;29.74;100661.22;4225834;28;23566;-74
2023/08/22 07:52:27;;;;;;;10.15;2.05;;;;;;;31.07;36.48;100650.03;4209876;28;20232;-69
2023/08/22 07:54:54;;;;;;;6.25;1.70;;;;;;;31.56;35.51;100661.75;4224479;28;20691;-74
2023/08/22 07:57:21;;;;;;;4.97;1.63;;;;;;;33.02;32.24;100647.56;4216587;28;20234;-72
2023/08/22 07:59:47;;;;;;;10.70;1.80;;;;;;;31.85;34.69;100655.53;4205697;28;20235;-72
2023/08/22 08:02:14;;;;;;;7.78;1.83;;;;;;;29.73;38.09;100656.06;4218329;28;21137;-72
2023/08/22 08:04:41;;;;;;;5.97;1.83;;;;;;;29.28;38.23;100662.16;4234013;28;20228;-76
2023/08/22 08:07:08;;;;;;;5.93;1.67;;;;;;;29.26;38.83;100665.22;4218742;28;20262;-73
2023/08/22 08:09:36;;;;;;;6.87;1.90;;;;;;;27.76;41.60;100662.75;4207140;28;20226;-71
2023/08/22 08:12:03;;;;;;;7.22;2.00;;;;;;;26.62;45.72;100660.84;4228628;28;20232;-74
2023/08/22 08:14:30;;;;;;;6.40;1.70;;;;;;;25.47;46.02;100651.25;4253111;28;20232;-74
2023/08/22 08:16:57;;;;;;;7.00;1.43;;;;;;;25.73;44.96;100648.19;4224104;28;20302;-72
2023/08/22 08:19:24;;;;;;;7.77;1.77;;;;;;;24.47;48.58;100652.81;4199429;28;20255;-73
2023/08/22 08:21:53;;;;;;;8.83;1.70;;;;;;;24.66;49.03;100657.25;4214313;28;20236;-72
2023/08/22 08:24:20;;;;;;;5.97;1.67;;;;;;;24.89;47.72;100655.63;4222866;28;20237;-73
2023/08/22 08:26:47;;;;;;;8.90;1.50;;;;;;;25.38;47.63;100646.28;4211618;28;20383;-75
2023/08/22 08:29:13;;;;;;;5.80;1.50;;;;;;;25.39;47.43;100642.47;4216766;28;20221;-73
2023/08/22 08:31:40;;;;;;;8.47;1.90;;;;;;;25.53;46.26;100654.97;4213044;28;20263;-73
2023/08/22 08:34:06;;;;;;;5.37;1.50;;;;;;;25.52;47.11;100664.38;4224500;28;20237;-72
2023/08/22 08:36:33;;;;;;;8.23;1.60;;;;;;;25.06;47.49;100660.47;4217485;28;20232;-73
2023/08/22 08:39:00;;;;;;;5.30;1.60;;;;;;;25.91;45.47;100661.94;4202379;28;20735;-75
2023/08/22 08:41:31;;;;;;;5.20;1.63;;;;;;;26.12;43.95;100650.47;4190911;28;20247;-72
2023/08/22 08:43:59;;;;;;;6.37;1.23;;;;;;;25.44;45.28;100654.53;4204752;28;20239;-74
2023/08/22 08:46:29;;;;;;;5.23;1.57;;;;;;;25.26;45.96;100654.59;4214548;28;22834;-73
2023/08/22 08:48:56;;;;;;;5.07;1.57;;;;;;;26.20;43.52;100655.63;4206570;28;20337;-72
2023/08/22 08:51:22;;;;;;;5.50;1.73;;;;;;;25.49;45.87;100658.47;4216162;28;20228;-73
2023/08/22 08:53:49;;;;;;;7.23;1.37;;;;;;;25.18;44.22;100666.88;4190757;28;20296;-74
2023/08/22 08:56:16;;;;;;;6.90;1.37;;;;;;;25.55;42.95;100660.28;4200089;28;20231;-72
2023/08/22 08:58:43;;;;;;;4.50;1.10;;;;;;;25.37;41.63;100648.22;4224459;28;20228;-72
2023/08/22 09:01:11;;;;;;;5.60;1.20;;;;;;;25.10;43.73;100653.38;4202807;28;21105;-74
2023/08/22 09:03:37;;;;;;;6.13;1.00;;;;;;;25.64;42.60;100644.97;4213648;28;21103;-74
2023/08/22 09:06:04;;;;;;;3.63;1.30;;;;;;;25.55;41.86;100649.19;4223127;28;20228;-75
2023/08/22 09:08:30;;;;;;;7.13;1.30;;;;;;;25.38;42.10;100636.06;4219087;28;20240;-73
2023/08/22 09:10:57;;;;;;;5.43;1.03;;;;;;;26.07;40.58;100640.91;4223677;28;20253;-73
2023/08/22 09:13:28;;;;;;;5.77;1.23;;;;;;;24.71;44.23;100639.09;4217882;28;20235;-74
2023/08/22 09:16:16;;;;;;;4.27;1.20;;;;;;;24.99;43.89;100639.28;4223694;28;20354;-73
2023/08/22 09:18:42;;;;;;;4.77;1.13;;;;;;;25.11;42.78;100636.50;4218997;28;20470;-74
2023/08/22 09:21:10;;;;;;;6.43;1.30;;;;;;;24.75;45.46;100632.00;4193756;28;21764;-73
2023/08/22 09:23:40;;;;;;;9.17;1.53;;;;;;;24.26;45.86;100637.56;4212763;28;20225;-73
2023/08/22 09:26:07;;;;;;;8.80;1.83;;;;;;;24.39;45.72;100631.88;4204826;28;21244;-73
2023/08/22 09:28:40;;;;;;;3.73;1.50;;;;;;;24.72;46.26;100629.72;4204901;28;20308;-73
2023/08/22 09:31:07;;;;;;;9.43;1.47;;;;;;;25.27;43.21;100620.25;4198952;28;21260;-74
2023/08/22 09:33:47;;;;;;;7.83;1.60;;;;;;;25.61;44.03;100620.50;4210510;28;20293;-74
2023/08/22 09:36:21;;;;;;;5.83;1.43;;;;;;;25.38;43.87;100611.13;4219579;28;20235;-72
2023/08/22 09:38:52;;;;;;;5.50;1.50;;;;;;;25.40;42.74;100608.97;4201656;28;20683;-72
2023/08/22 09:41:26;;;;;;;5.50;1.37;;;;;;;25.09;44.12;100605.44;4231137;28;23616;-73
2023/08/22 09:44:02;;;;;;;3.67;1.50;;;;;;;24.96;42.23;100620.34;4212088;28;22977;-74
2023/08/22 09:46:29;;;;;;;3.60;1.20;;;;;;;25.17;41.64;100609.78;4201180;28;23073;-74
2023/08/22 09:48:57;;;;;;;2.67;1.10;;;;;;;25.11;43.48;100614.34;4203165;28;20683;-73
2023/08/22 09:51:24;;;;;;;3.73;1.00;;;;;;;24.75;43.68;100613.47;4236499;28;21020;-72
2023/08/22 09:53:53;;;;;;;3.57;0.90;;;;;;;24.91;44.08;100608.31;4213780;28;21133;-73
2023/08/22 09:56:20;;;;;;;3.30;1.17;;;;;;;25.11;43.90;100602.44;4214180;28;20255;-74
2023/08/22 09:58:47;;;;;;;4.53;1.37;;;;;;;24.89;42.37;100605.78;4194165;28;20319;-73
2023/08/22 10:01:16;;;;;;;7.83;1.40;;;;;;;24.63;43.06;100604.25;4213451;28;20252;-72
2023/08/22 10:03:44;;;;;;;5.07;1.13;;;;;;;24.62;43.74;100602.59;4189274;28;20392;-72
2023/08/22 10:06:12;;;;;;;4.67;0.90;;;;;;;24.80;43.14;100602.53;4211477;28;21524;-72
2023/08/22 10:08:43;;;;;;;9.13;1.60;;;;;;;24.64;42.55;100586.56;4228852;28;20232;-73
2023/08/22 10:11:12;;;;;;;4.90;1.43;;;;;;;24.58;43.05;100593.06;4221607;28;20240;-73
2023/08/22 10:13:39;;;;;;;3.40;1.30;;;;;;;25.15;41.69;100587.84;4200615;28;20232;-73
2023/08/22 10:16:06;;;;;;;8.03;1.10;;;;;;;24.74;41.96;100586.00;4202143;28;20235;-74
2023/08/22 10:18:33;;;;;;;4.57;1.20;;;;;;;25.14;41.98;100586.19;4211764;28;20356;-74
2023/08/22 10:21:03;;;;;;;4.83;1.17;;;;;;;25.17;42.63;100590.41;4227106;28;20236;-73
2023/08/22 10:23:51;;;;;;;5.07;1.27;;;;;;;24.59;43.24;100584.50;4195738;28;20256;-74
2023/08/22 10:26:22;;;;;;;6.47;1.50;;;;;;;24.78;43.38;100582.53;4227459;28;20236;-75
2023/08/22 10:29:17;;;;;;;8.13;1.57;;;;;;;24.56;43.25;100589.66;4208929;28;20233;-72
2023/08/22 10:32:02;;;;;;;7.57;1.37;;;;;;;24.68;43.94;100585.06;4196852;28;20248;-73
2023/08/22 10:34:38;;;;;;;6.97;1.33;;;;;;;24.69;44.18;100583.97;4220345;28;20226;-73
2023/08/22 10:37:06;;;;;;;6.60;1.30;;;;;;;24.61;44.07;100579.59;4220544;28;20284;-72
2023/08/22 10:39:43;;;;;;;6.67;1.43;;;;;;;24.48;44.02;100568.72;4211481;28;20232;-74
2023/08/22 10:42:13;;;;;;;7.37;1.53;;;;;;;24.42;44.57;100570.50;4218966;28;20317;-74
2023/08/22 10:44:40;;;;;;;5.23;1.40;;;;;;;24.81;43.47;100572.94;4203439;28;20298;-74
2023/08/22 10:47:07;;;;;;;3.37;1.27;;;;;;;24.62;43.52;100566.59;4204603;28;20227;-74
2023/08/22 10:49:39;;;;;;;6.33;1.30;;;;;;;24.71;43.32;100567.13;4213849;28;20247;-74
2023/08/22 10:52:11;;;;;;;2.93;1.20;;;;;;;24.62;44.29;100561.06;4223244;28;20245;-72
2023/08/22 10:55:00;;;;;;;5.17;1.30;;;;;;;24.72;43.17;100560.50;4216875;28;20346;-73
2023/08/22 10:57:27;;;;;;;5.10;1.20;;;;;;;24.94;42.10;100555.22;4208224;28;20247;-74
2023/08/22 11:00:12;;;;;;;4.23;1.27;;;;;;;25.14;42.22;100561.25;4208079;28;21633;-74
2023/08/22 11:02:41;;;;;;;6.10;1.43;;;;;;;25.25;41.60;100564.25;4197517;28;20262;-74
2023/08/22 11:05:11;;;;;;;5.93;1.20;;;;;;;25.25;41.26;100550.38;4202643;28;21799;-74
2023/08/22 11:07:44;;;;;;;6.47;1.60;;;;;;;25.73;40.99;100559.47;4196237;28;20808;-73
2023/08/22 11:10:13;;;;;;;6.97;1.77;;;;;;;25.57;41.18;100556.38;4188858;28;20233;-73
2023/08/22 11:12:40;;;;;;;5.03;1.53;;;;;;;25.51;40.88;100556.53;4205487;28;20233;-73
2023/08/22 11:15:07;;;;;;;6.03;1.40;;;;;;;25.25;41.86;100555.94;4190698;28;22435;-73
2023/08/22 11:17:40;;;;;;;4.97;1.50;;;;;;;25.15;42.02;100554.59;4198357;28;20233;-74
2023/08/22 11:20:11;;;;;;;4.30;1.70;;;;;;;24.81;41.84;100554.38;4213856;28;20280;-75
2023/08/22 11:22:42;;;;;;;6.27;1.50;;;;;;;24.90;42.34;100557.63;4215408;28;20474;-73
2023/08/22 11:25:13;;;;;;;5.00;1.30;;;;;;;24.97;42.82;100550.03;4201460;28;20578;-73